createdAt,value
2022-11-15T00:00:27.811Z,100512.22
2022-11-15T00:05:29.124Z,100515.47
2022-11-15T00:10:30.454Z,100501.41
2022-11-15T00:15:31.755Z,100487.97
2022-11-15T00:20:35.915Z,100495.63
2022-11-15T00:25:37.221Z,100493.31
2022-11-15T00:30:38.588Z,100499.97
2022-11-15T00:35:39.894Z,100505.59
2022-11-15T00:40:41.326Z,100501.59
2022-11-15T00:45:42.643Z,100508.41
2022-11-15T00:50:44.048Z,100506.44
2022-11-15T00:55:45.431Z,100498.84
2022-11-15T01:00:46.790Z,100495.63
2022-11-15T01:05:48.098Z,100484.19
2022-11-15T01:10:49.410Z,100481.34
2022-11-15T01:15:50.736Z,100479.69
2022-11-15T01:20:52.035Z,100470.97
2022-11-15T01:25:53.358Z,100474.13
2022-11-15T01:30:54.684Z,100477.94
2022-11-15T01:35:56.348Z,100472.78
2022-11-15T01:40:57.677Z,100474.00
2022-11-15T01:46:03.622Z,100462.59
2022-11-15T01:51:07.781Z,100458.28
2022-11-15T01:56:10.407Z,100453.97
2022-11-15T02:01:13.303Z,100454.25
2022-11-15T02:06:15.371Z,100446.47
2022-11-15T02:11:16.769Z,100448.72
2022-11-15T02:16:36.906Z,100442.50
2022-11-15T02:21:44.106Z,100429.25
2022-11-15T02:26:45.397Z,100429.84
2022-11-15T02:31:56.684Z,100420.81
2022-11-15T02:37:04.971Z,100414.56
2022-11-15T02:42:32.175Z,100411.16
2022-11-15T02:47:35.188Z,100400.72
2022-11-15T02:52:36.505Z,100403.97
2022-11-15T02:57:46.899Z,100400.75
2022-11-15T03:03:00.215Z,100401.75
2022-11-15T03:08:18.854Z,100399.34
2022-11-15T03:13:42.250Z,100397.91
2022-11-15T03:18:46.566Z,100394.50
2022-11-15T03:23:48.734Z,100401.16
2022-11-15T03:28:55.848Z,100404.56
2022-11-15T03:33:59.433Z,100410.81
2022-11-15T03:39:03.074Z,100413.03
2022-11-15T03:44:04.365Z,100409.63
2022-11-15T03:49:09.059Z,100406.16
2022-11-15T03:54:12.905Z,100403.56
2022-11-15T03:59:14.225Z,100400.53
2022-11-15T04:04:15.559Z,100390.31
2022-11-15T04:09:16.927Z,100382.84
2022-11-15T04:14:18.306Z,100386.28
2022-11-15T04:19:38.155Z,100383.47
2022-11-15T04:24:39.555Z,100382.47
2022-11-15T04:29:40.895Z,100382.06
2022-11-15T04:34:42.244Z,100374.59
2022-11-15T04:39:44.144Z,100380.63
2022-11-15T04:44:45.487Z,100381.84
2022-11-15T04:49:46.819Z,100377.63
2022-11-15T04:54:48.185Z,100379.84
2022-11-15T04:59:49.510Z,100378.25
2022-11-15T05:04:50.861Z,100384.47
2022-11-15T05:09:52.203Z,100384.28
2022-11-15T05:14:53.524Z,100385.69
2022-11-15T05:19:54.857Z,100393.94
2022-11-15T05:24:56.172Z,100385.06
2022-11-15T05:29:57.487Z,100384.28
2022-11-15T05:34:58.803Z,100386.28
2022-11-15T05:40:00.111Z,100380.22
2022-11-15T05:45:02.619Z,100386.84
2022-11-15T05:50:04.188Z,100385.25
2022-11-15T05:55:06.734Z,100391.28
2022-11-15T06:00:10.277Z,100395.09
2022-11-15T06:05:11.632Z,100398.50
2022-11-15T06:10:12.994Z,100399.13
2022-11-15T06:15:14.367Z,100400.72
2022-11-15T06:20:15.839Z,100411.75
2022-11-15T06:25:17.154Z,100417.53
2022-11-15T06:30:18.515Z,100430.16
2022-11-15T06:35:19.836Z,100423.38
2022-11-15T06:40:21.203Z,100429.75
2022-11-15T06:45:22.525Z,100430.38
2022-11-15T06:50:24.037Z,100426.31
2022-11-15T06:55:25.354Z,100422.28
2022-11-15T07:00:26.685Z,100419.03
2022-11-15T07:05:28.088Z,100427.50
2022-11-15T07:10:29.644Z,100429.06
2022-11-15T07:15:30.944Z,100433.03
2022-11-15T07:20:32.260Z,100442.56
2022-11-15T07:25:35.130Z,100449.06
2022-11-15T07:30:38.963Z,100441.31
2022-11-15T07:35:43.869Z,100448.75
2022-11-15T07:40:45.183Z,100451.34
2022-11-15T07:45:46.651Z,100455.47
2022-11-15T07:50:48.099Z,100449.94
2022-11-15T07:55:49.499Z,100448.63
2022-11-15T08:00:50.842Z,100450.16
2022-11-15T08:05:52.675Z,100449.00
2022-11-15T08:10:54.090Z,100436.06
2022-11-15T08:16:02.346Z,100425.84
2022-11-15T08:21:04.208Z,100423.69
2022-11-15T08:26:05.858Z,100429.41
2022-11-15T08:31:07.199Z,100425.06
2022-11-15T08:36:12.665Z,100419.56
2022-11-15T08:41:16.890Z,100402.88
2022-11-15T08:46:19.257Z,100402.22
2022-11-15T08:51:20.652Z,100391.75
2022-11-15T08:56:22.014Z,100386.78
2022-11-15T09:01:23.548Z,100389.22
2022-11-15T09:06:24.975Z,100394.94
2022-11-15T09:11:27.459Z,100381.53
2022-11-15T09:16:28.833Z,100388.31
2022-11-15T09:21:31.105Z,100378.75
2022-11-15T09:26:32.528Z,100395.59
2022-11-15T09:31:33.912Z,100385.00
2022-11-15T09:36:35.253Z,100386.97
2022-11-15T09:41:36.581Z,100379.50
2022-11-15T09:46:43.876Z,100371.75
2022-11-15T09:51:50.835Z,100365.75
2022-11-15T09:56:52.763Z,100351.28
2022-11-15T10:01:57.118Z,100350.19
2022-11-15T10:07:15.393Z,100332.00
2022-11-15T10:12:16.955Z,100329.88
2022-11-15T10:17:27.592Z,100320.63
2022-11-15T10:22:45.262Z,100306.88
2022-11-15T10:27:51.245Z,100308.69
2022-11-15T10:32:52.545Z,100296.53
2022-11-15T10:38:05.039Z,100283.03
2022-11-15T10:43:06.404Z,100279.28
2022-11-15T10:48:13.626Z,100279.59
2022-11-15T10:53:18.038Z,100274.75
2022-11-15T10:58:22.412Z,100270.94
2022-11-15T11:03:23.702Z,100268.97
2022-11-15T11:08:25.397Z,100255.16
2022-11-15T11:13:32.509Z,100256.00
2022-11-15T11:18:48.518Z,100240.50
2022-11-15T11:23:54.323Z,100236.19
2022-11-15T11:29:07.739Z,100227.88
2022-11-15T11:34:28.072Z,100215.75
2022-11-15T11:39:55.119Z,100201.78
2022-11-15T11:44:59.216Z,100200.00
2022-11-15T11:50:01.793Z,100200.13
2022-11-15T11:55:22.086Z,100198.00
2022-11-15T12:00:24.263Z,100199.06
2022-11-15T12:05:31.843Z,100189.84
2022-11-15T12:10:34.381Z,100187.84
2022-11-15T12:15:43.388Z,100178.16
2022-11-15T12:20:54.848Z,100172.69
2022-11-15T12:26:07.686Z,100152.47
2022-11-15T12:31:27.842Z,100153.72
2022-11-15T12:36:33.208Z,100141.25
2022-11-15T12:41:35.758Z,100123.31
2022-11-15T12:46:39.908Z,100105.34
2022-11-15T12:51:44.316Z,100108.22
2022-11-15T12:56:45.639Z,100100.38
2022-11-15T13:01:46.988Z,100087.31
2022-11-15T13:06:52.718Z,100080.75
2022-11-15T13:11:54.288Z,100059.25
2022-11-15T13:17:01.733Z,100055.97
2022-11-15T13:22:24.584Z,100058.25
2022-11-15T13:27:26.284Z,100033.41
2022-11-15T13:32:27.690Z,100037.16
2022-11-15T13:37:31.147Z,100016.50
2022-11-15T13:42:32.455Z,100012.53
2022-11-15T13:47:33.926Z,100011.97
2022-11-15T13:52:37.883Z,100003.03
2022-11-15T13:57:39.197Z,99999.16
2022-11-15T14:02:40.789Z,99989.31
2022-11-15T14:07:53.280Z,99966.59
2022-11-15T14:12:54.893Z,99958.97
2022-11-15T14:17:56.373Z,99947.09
2022-11-15T14:22:58.747Z,99944.28
2022-11-15T14:28:09.020Z,99945.59
2022-11-15T14:33:30.165Z,99933.13
2022-11-15T14:38:31.833Z,99926.44
2022-11-15T14:43:33.426Z,99927.47
2022-11-15T14:48:35.688Z,99914.47
2022-11-15T14:53:37.031Z,99918.81
2022-11-15T14:58:38.387Z,99915.50
2022-11-15T15:03:39.776Z,99902.66
2022-11-15T15:08:41.712Z,99897.75
2022-11-15T15:13:43.125Z,99888.38
2022-11-15T15:18:44.464Z,99881.59
2022-11-15T15:23:45.805Z,99875.97
2022-11-15T15:28:49.413Z,99868.25
2022-11-15T15:33:50.759Z,99858.22
2022-11-15T15:38:52.185Z,99843.38
2022-11-15T15:43:53.486Z,99849.09
2022-11-15T15:48:54.901Z,99847.84
2022-11-15T15:53:59.021Z,99846.13
2022-11-15T15:59:00.335Z,99831.41
2022-11-15T16:04:01.688Z,99830.72
2022-11-15T16:09:19.589Z,99823.09
2022-11-15T16:14:21.311Z,99819.34
2022-11-15T16:19:24.477Z,99811.94
2022-11-15T16:24:25.783Z,99817.72
2022-11-15T16:29:27.371Z,99803.50
2022-11-15T16:34:31.117Z,99800.53
2022-11-15T16:39:34.341Z,99801.78
2022-11-15T16:44:35.755Z,99804.84
2022-11-15T16:49:37.087Z,99814.31
2022-11-15T16:54:38.475Z,99815.81
2022-11-15T16:59:39.871Z,99804.84
2022-11-15T17:04:41.244Z,99805.78
2022-11-15T17:09:42.577Z,99804.41
2022-11-15T17:14:46.011Z,99797.25
2022-11-15T17:19:47.311Z,99802.50
2022-11-15T17:24:48.673Z,99794.63
2022-11-15T17:29:49.983Z,99796.41
2022-11-15T17:34:51.333Z,99789.25
2022-11-15T17:39:52.636Z,99787.09
2022-11-15T17:44:53.952Z,99783.09
2022-11-15T17:49:55.310Z,99780.81
2022-11-15T17:54:56.668Z,99776.41
2022-11-15T17:59:57.989Z,99772.41
2022-11-15T18:04:59.305Z,99767.50
2022-11-15T18:10:00.646Z,99766.00
2022-11-15T18:15:02.036Z,99764.63
2022-11-15T18:20:03.863Z,99759.50
2022-11-15T18:25:05.406Z,99751.84
2022-11-15T18:30:07.052Z,99750.69
2022-11-15T18:35:09.201Z,99737.25
2022-11-15T18:40:10.721Z,99739.63
2022-11-15T18:45:12.105Z,99737.22
2022-11-15T18:50:13.431Z,99726.88
2022-11-15T18:55:14.750Z,99725.72
2022-11-15T19:00:16.386Z,99715.81
2022-11-15T19:05:21.533Z,99719.22
2022-11-15T19:10:22.855Z,99718.66
2022-11-15T19:15:24.183Z,99710.25
2022-11-15T19:20:25.570Z,99710.03
2022-11-15T19:25:28.764Z,99709.53
2022-11-15T19:30:30.071Z,99707.75
2022-11-15T19:35:31.536Z,99700.91
2022-11-15T19:40:33.228Z,99689.19
2022-11-15T19:45:34.530Z,99700.69
2022-11-15T19:50:37.058Z,99692.59
2022-11-15T19:55:38.376Z,99683.66
2022-11-15T20:00:39.701Z,99676.00
2022-11-15T20:05:41.037Z,99673.84
2022-11-15T20:10:43.416Z,99660.06
2022-11-15T20:15:44.716Z,99660.28
2022-11-15T20:20:46.199Z,99664.16
2022-11-15T20:25:47.746Z,99655.84
2022-11-15T20:30:51.383Z,99659.38
2022-11-15T20:35:53.215Z,99658.56
2022-11-15T20:40:59.001Z,99654.13
2022-11-15T20:46:01.400Z,99645.94
2022-11-15T20:51:04.824Z,99639.81
2022-11-15T20:56:17.961Z,99643.66
2022-11-15T21:01:23.519Z,99626.25
2022-11-15T21:06:26.026Z,99621.56
2022-11-15T21:11:45.840Z,99621.56
2022-11-15T21:16:47.167Z,99619.84
2022-11-15T21:21:48.690Z,99611.44
2022-11-15T21:26:50.847Z,99605.53
2022-11-15T21:31:53.455Z,99599.25
2022-11-15T21:36:54.845Z,99598.69
2022-11-15T21:41:56.750Z,99606.41
2022-11-15T21:46:58.063Z,99598.44
2022-11-15T21:51:59.377Z,99595.25
2022-11-15T21:57:00.682Z,99583.88
2022-11-15T22:02:17.070Z,99575.81
2022-11-15T22:07:18.566Z,99570.00
2022-11-15T22:12:19.951Z,99566.44
2022-11-15T22:17:21.274Z,99563.81
2022-11-15T22:22:22.602Z,99564.63
2022-11-15T22:27:23.940Z,99557.47
2022-11-15T22:32:25.281Z,99549.03
2022-11-15T22:37:26.682Z,99539.59
2022-11-15T22:42:28.148Z,99540.59
2022-11-15T22:47:29.536Z,99533.69
2022-11-15T22:52:30.878Z,99532.31
2022-11-15T22:57:32.608Z,99529.91
2022-11-15T23:02:34.001Z,99526.72
2022-11-15T23:07:35.356Z,99516.72
2022-11-15T23:12:55.417Z,99519.88
2022-11-15T23:17:56.739Z,99507.50
2022-11-15T23:22:58.985Z,99512.72
2022-11-15T23:28:02.213Z,99497.28
2022-11-15T23:33:22.033Z,99502.69
2022-11-15T23:38:23.359Z,99490.31
2022-11-15T23:43:24.778Z,99489.44
2022-11-15T23:48:27.435Z,99486.47
2022-11-15T23:53:28.751Z,99486.22
2022-11-15T23:58:30.260Z,99482.56
